sensor_id;sensor_type;location;lat;lon;timestamp;P1;durP1;ratioP1;P2;durP2;ratioP2
82415;SDS011;72058;47.782;10.618;2023-12-07T00:01:10;12.07;;;9.15;;
82415;SDS011;72058;47.782;10.618;2023-12-07T00:03:35;11.55;;;9.25;;
82415;SDS011;72058;47.782;10.618;2023-12-07T00:06:01;11.40;;;9.40;;
82415;SDS011;72058;47.782;10.618;2023-12-07T00:08:27;12.68;;;8.98;;
82415;SDS011;72058;47.782;10.618;2023-12-07T00:10:52;13.30;;;9.43;;
82415;SDS011;72058;47.782;10.618;2023-12-07T00:13:17;12.20;;;9.98;;
82415;SDS011;72058;47.782;10.618;2023-12-07T00:15:43;15.47;;;9.90;;
82415;SDS011;72058;47.782;10.618;2023-12-07T00:18:08;17.43;;;11.17;;
82415;SDS011;72058;47.782;10.618;2023-12-07T00:20:34;12.85;;;7.82;;
82415;SDS011;72058;47.782;10.618;2023-12-07T00:22:59;14.63;;;10.98;;
82415;SDS011;72058;47.782;10.618;2023-12-07T00:25:25;14.95;;;10.90;;
82415;SDS011;72058;47.782;10.618;2023-12-07T00:27:50;13.87;;;10.67;;
82415;SDS011;72058;47.782;10.618;2023-12-07T00:30:16;17.05;;;11.93;;
82415;SDS011;72058;47.782;10.618;2023-12-07T00:32:41;14.57;;;10.37;;
82415;SDS011;72058;47.782;10.618;2023-12-07T00:35:08;16.23;;;12.07;;
82415;SDS011;72058;47.782;10.618;2023-12-07T00:37:37;15.57;;;11.40;;
82415;SDS011;72058;47.782;10.618;2023-12-07T00:40:02;16.87;;;12.90;;
82415;SDS011;72058;47.782;10.618;2023-12-07T00:42:29;16.48;;;11.13;;
82415;SDS011;72058;47.782;10.618;2023-12-07T00:44:54;14.48;;;10.75;;
82415;SDS011;72058;47.782;10.618;2023-12-07T00:47:20;14.23;;;10.55;;
82415;SDS011;72058;47.782;10.618;2023-12-07T00:49:46;11.85;;;9.57;;
82415;SDS011;72058;47.782;10.618;2023-12-07T00:52:11;13.15;;;10.90;;
82415;SDS011;72058;47.782;10.618;2023-12-07T00:54:37;12.77;;;11.48;;
82415;SDS011;72058;47.782;10.618;2023-12-07T00:57:02;11.30;;;8.80;;
82415;SDS011;72058;47.782;10.618;2023-12-07T00:59:28;12.23;;;8.00;;
82415;SDS011;72058;47.782;10.618;2023-12-07T01:01:58;13.10;;;10.32;;
82415;SDS011;72058;47.782;10.618;2023-12-07T01:04:27;12.63;;;10.40;;
82415;SDS011;72058;47.782;10.618;2023-12-07T01:06:53;14.35;;;10.85;;
82415;SDS011;72058;47.782;10.618;2023-12-07T01:09:18;12.20;;;9.37;;
82415;SDS011;72058;47.782;10.618;2023-12-07T01:11:44;12.60;;;10.20;;
82415;SDS011;72058;47.782;10.618;2023-12-07T01:14:09;10.80;;;9.15;;
82415;SDS011;72058;47.782;10.618;2023-12-07T01:16:36;12.82;;;10.73;;
82415;SDS011;72058;47.782;10.618;2023-12-07T01:19:01;12.75;;;9.63;;
82415;SDS011;72058;47.782;10.618;2023-12-07T01:21:27;13.50;;;9.40;;
82415;SDS011;72058;47.782;10.618;2023-12-07T01:23:52;13.85;;;8.82;;
82415;SDS011;72058;47.782;10.618;2023-12-07T01:26:18;13.97;;;9.97;;
82415;SDS011;72058;47.782;10.618;2023-12-07T01:28:43;14.03;;;8.57;;
82415;SDS011;72058;47.782;10.618;2023-12-07T01:31:08;12.30;;;10.50;;
82415;SDS011;72058;47.782;10.618;2023-12-07T01:33:34;14.33;;;10.87;;
82415;SDS011;72058;47.782;10.618;2023-12-07T01:35:59;14.13;;;11.23;;
82415;SDS011;72058;47.782;10.618;2023-12-07T01:38:24;12.37;;;10.23;;
82415;SDS011;72058;47.782;10.618;2023-12-07T01:40:49;16.07;;;11.93;;
82415;SDS011;72058;47.782;10.618;2023-12-07T01:43:15;13.43;;;11.00;;
82415;SDS011;72058;47.782;10.618;2023-12-07T01:45:40;13.25;;;11.40;;
82415;SDS011;72058;47.782;10.618;2023-12-07T01:48:05;14.67;;;11.20;;
82415;SDS011;72058;47.782;10.618;2023-12-07T01:50:31;16.48;;;10.80;;
82415;SDS011;72058;47.782;10.618;2023-12-07T01:53:01;13.48;;;11.05;;
82415;SDS011;72058;47.782;10.618;2023-12-07T01:55:28;13.57;;;11.55;;
82415;SDS011;72058;47.782;10.618;2023-12-07T01:57:56;15.77;;;11.32;;
82415;SDS011;72058;47.782;10.618;2023-12-07T02:00:21;15.38;;;11.40;;
82415;SDS011;72058;47.782;10.618;2023-12-07T02:02:47;13.25;;;10.90;;
82415;SDS011;72058;47.782;10.618;2023-12-07T02:05:13;13.70;;;11.00;;
82415;SDS011;72058;47.782;10.618;2023-12-07T02:07:40;13.10;;;11.02;;
82415;SDS011;72058;47.782;10.618;2023-12-07T02:10:06;16.50;;;10.82;;
82415;SDS011;72058;47.782;10.618;2023-12-07T02:12:32;14.38;;;10.68;;
82415;SDS011;72058;47.782;10.618;2023-12-07T02:14:58;15.95;;;10.93;;
82415;SDS011;72058;47.782;10.618;2023-12-07T02:22:54;13.95;;;11.07;;
82415;SDS011;72058;47.782;10.618;2023-12-07T02:26:07;14.25;;;11.63;;
82415;SDS011;72058;47.782;10.618;2023-12-07T02:28:14;12.80;;;10.80;;
82415;SDS011;72058;47.782;10.618;2023-12-07T02:30:39;13.97;;;9.43;;
82415;SDS011;72058;47.782;10.618;2023-12-07T02:33:05;12.70;;;10.40;;
82415;SDS011;72058;47.782;10.618;2023-12-07T02:35:30;12.65;;;11.18;;
82415;SDS011;72058;47.782;10.618;2023-12-07T02:37:56;18.27;;;13.23;;
82415;SDS011;72058;47.782;10.618;2023-12-07T02:40:26;17.63;;;11.93;;
82415;SDS011;72058;47.782;10.618;2023-12-07T02:42:53;13.95;;;10.77;;
82415;SDS011;72058;47.782;10.618;2023-12-07T02:45:19;13.70;;;10.55;;
82415;SDS011;72058;47.782;10.618;2023-12-07T02:47:45;14.68;;;11.60;;
82415;SDS011;72058;47.782;10.618;2023-12-07T02:50:11;13.32;;;10.70;;
82415;SDS011;72058;47.782;10.618;2023-12-07T02:52:37;14.85;;;11.48;;
82415;SDS011;72058;47.782;10.618;2023-12-07T02:55:03;13.82;;;11.50;;
82415;SDS011;72058;47.782;10.618;2023-12-07T02:57:29;13.50;;;10.88;;
82415;SDS011;72058;47.782;10.618;2023-12-07T02:59:55;13.30;;;11.30;;
82415;SDS011;72058;47.782;10.618;2023-12-07T03:02:20;14.93;;;10.93;;
82415;SDS011;72058;47.782;10.618;2023-12-07T03:04:46;13.37;;;10.67;;
82415;SDS011;72058;47.782;10.618;2023-12-07T03:07:11;18.73;;;12.37;;
82415;SDS011;72058;47.782;10.618;2023-12-07T03:09:36;15.03;;;9.37;;
82415;SDS011;72058;47.782;10.618;2023-12-07T03:12:02;16.50;;;11.87;;
82415;SDS011;72058;47.782;10.618;2023-12-07T03:14:27;16.27;;;10.82;;
82415;SDS011;72058;47.782;10.618;2023-12-07T03:16:53;17.43;;;12.17;;
82415;SDS011;72058;47.782;10.618;2023-12-07T03:19:18;15.25;;;10.70;;
82415;SDS011;72058;47.782;10.618;2023-12-07T03:21:43;15.60;;;11.27;;
82415;SDS011;72058;47.782;10.618;2023-12-07T03:24:09;14.33;;;10.80;;
82415;SDS011;72058;47.782;10.618;2023-12-07T03:26:35;14.35;;;10.88;;
82415;SDS011;72058;47.782;10.618;2023-12-07T03:29:01;15.90;;;11.73;;
82415;SDS011;72058;47.782;10.618;2023-12-07T03:31:27;13.47;;;10.40;;
82415;SDS011;72058;47.782;10.618;2023-12-07T03:33:53;14.77;;;9.95;;
82415;SDS011;72058;47.782;10.618;2023-12-07T03:36:19;14.25;;;10.70;;
82415;SDS011;72058;47.782;10.618;2023-12-07T03:38:44;17.30;;;11.15;;
82415;SDS011;72058;47.782;10.618;2023-12-07T03:41:10;14.17;;;11.47;;
82415;SDS011;72058;47.782;10.618;2023-12-07T03:43:35;15.30;;;10.65;;
82415;SDS011;72058;47.782;10.618;2023-12-07T03:46:03;14.87;;;12.43;;
82415;SDS011;72058;47.782;10.618;2023-12-07T03:48:30;13.90;;;10.00;;
82415;SDS011;72058;47.782;10.618;2023-12-07T03:50:55;15.80;;;10.93;;
82415;SDS011;72058;47.782;10.618;2023-12-07T03:53:21;16.77;;;10.70;;
82415;SDS011;72058;47.782;10.618;2023-12-07T03:55:46;15.93;;;12.17;;
82415;SDS011;72058;47.782;10.618;2023-12-07T03:58:11;16.67;;;10.98;;
82415;SDS011;72058;47.782;10.618;2023-12-07T04:00:38;14.15;;;11.32;;
82415;SDS011;72058;47.782;10.618;2023-12-07T04:03:04;16.35;;;11.13;;
82415;SDS011;72058;47.782;10.618;2023-12-07T04:05:29;15.35;;;10.70;;
82415;SDS011;72058;47.782;10.618;2023-12-07T04:07:55;13.20;;;11.20;;
82415;SDS011;72058;47.782;10.618;2023-12-07T04:10:20;16.33;;;11.43;;
82415;SDS011;72058;47.782;10.618;2023-12-07T04:12:45;14.23;;;11.57;;
82415;SDS011;72058;47.782;10.618;2023-12-07T04:15:11;15.70;;;11.13;;
82415;SDS011;72058;47.782;10.618;2023-12-07T04:17:36;15.45;;;12.35;;
82415;SDS011;72058;47.782;10.618;2023-12-07T04:20:02;13.43;;;11.47;;
82415;SDS011;72058;47.782;10.618;2023-12-07T04:22:27;15.18;;;10.98;;
82415;SDS011;72058;47.782;10.618;2023-12-07T04:24:54;14.48;;;11.52;;
82415;SDS011;72058;47.782;10.618;2023-12-07T04:27:19;17.40;;;11.05;;
82415;SDS011;72058;47.782;10.618;2023-12-07T04:29:44;14.65;;;11.25;;
82415;SDS011;72058;47.782;10.618;2023-12-07T04:32:10;18.00;;;12.53;;
82415;SDS011;72058;47.782;10.618;2023-12-07T04:34:35;17.33;;;11.77;;
82415;SDS011;72058;47.782;10.618;2023-12-07T04:37:01;16.90;;;11.38;;
82415;SDS011;72058;47.782;10.618;2023-12-07T04:39:26;18.50;;;12.67;;
82415;SDS011;72058;47.782;10.618;2023-12-07T04:41:52;16.05;;;12.43;;
82415;SDS011;72058;47.782;10.618;2023-12-07T04:44:17;15.57;;;12.37;;
82415;SDS011;72058;47.782;10.618;2023-12-07T04:46:42;19.23;;;13.60;;
82415;SDS011;72058;47.782;10.618;2023-12-07T04:49:08;14.27;;;11.40;;
82415;SDS011;72058;47.782;10.618;2023-12-07T04:51:33;15.32;;;11.98;;
82415;SDS011;72058;47.782;10.618;2023-12-07T04:53:59;16.48;;;12.35;;
82415;SDS011;72058;47.782;10.618;2023-12-07T04:56:24;16.77;;;12.02;;
82415;SDS011;72058;47.782;10.618;2023-12-07T04:58:50;16.37;;;11.77;;
82415;SDS011;72058;47.782;10.618;2023-12-07T05:01:15;17.17;;;12.50;;
82415;SDS011;72058;47.782;10.618;2023-12-07T05:03:40;15.63;;;11.38;;
82415;SDS011;72058;47.782;10.618;2023-12-07T05:06:06;13.43;;;11.27;;
82415;SDS011;72058;47.782;10.618;2023-12-07T05:08:32;13.90;;;11.57;;
82415;SDS011;72058;47.782;10.618;2023-12-07T05:10:58;17.42;;;12.27;;
82415;SDS011;72058;47.782;10.618;2023-12-07T05:13:23;15.50;;;13.02;;
82415;SDS011;72058;47.782;10.618;2023-12-07T05:15:48;14.07;;;10.90;;
82415;SDS011;72058;47.782;10.618;2023-12-07T05:18:14;18.20;;;12.50;;
82415;SDS011;72058;47.782;10.618;2023-12-07T05:20:39;18.80;;;13.30;;
82415;SDS011;72058;47.782;10.618;2023-12-07T05:23:05;20.60;;;11.73;;
82415;SDS011;72058;47.782;10.618;2023-12-07T05:25:31;16.25;;;10.50;;
82415;SDS011;72058;47.782;10.618;2023-12-07T05:27:57;18.27;;;12.60;;
82415;SDS011;72058;47.782;10.618;2023-12-07T05:30:22;19.63;;;11.80;;
82415;SDS011;72058;47.782;10.618;2023-12-07T05:32:48;19.33;;;13.80;;
82415;SDS011;72058;47.782;10.618;2023-12-07T05:35:13;18.50;;;13.23;;
82415;SDS011;72058;47.782;10.618;2023-12-07T05:37:38;18.13;;;12.65;;
82415;SDS011;72058;47.782;10.618;2023-12-07T05:40:04;15.83;;;12.17;;
82415;SDS011;72058;47.782;10.618;2023-12-07T05:42:30;14.75;;;11.57;;
82415;SDS011;72058;47.782;10.618;2023-12-07T05:44:56;14.38;;;10.45;;
82415;SDS011;72058;47.782;10.618;2023-12-07T05:47:21;14.10;;;11.70;;
82415;SDS011;72058;47.782;10.618;2023-12-07T05:49:48;14.23;;;10.43;;
82415;SDS011;72058;47.782;10.618;2023-12-07T05:52:13;14.57;;;11.63;;
82415;SDS011;72058;47.782;10.618;2023-12-07T05:54:39;14.93;;;12.10;;
82415;SDS011;72058;47.782;10.618;2023-12-07T05:57:07;14.13;;;10.77;;
82415;SDS011;72058;47.782;10.618;2023-12-07T05:59:36;13.48;;;10.05;;
82415;SDS011;72058;47.782;10.618;2023-12-07T06:02:02;12.93;;;10.63;;
82415;SDS011;72058;47.782;10.618;2023-12-07T06:04:28;13.80;;;12.15;;
82415;SDS011;72058;47.782;10.618;2023-12-07T06:06:54;17.13;;;11.32;;
82415;SDS011;72058;47.782;10.618;2023-12-07T06:09:19;15.10;;;10.47;;
82415;SDS011;72058;47.782;10.618;2023-12-07T06:11:45;12.93;;;10.40;;
82415;SDS011;72058;47.782;10.618;2023-12-07T06:14:10;13.02;;;11.27;;
82415;SDS011;72058;47.782;10.618;2023-12-07T06:16:36;16.13;;;12.45;;
82415;SDS011;72058;47.782;10.618;2023-12-07T06:19:02;16.75;;;11.82;;
82415;SDS011;72058;47.782;10.618;2023-12-07T06:21:27;13.95;;;11.35;;
82415;SDS011;72058;47.782;10.618;2023-12-07T06:23:54;14.50;;;11.13;;
82415;SDS011;72058;47.782;10.618;2023-12-07T06:26:20;14.07;;;10.70;;
82415;SDS011;72058;47.782;10.618;2023-12-07T06:28:45;15.30;;;12.73;;
82415;SDS011;72058;47.782;10.618;2023-12-07T06:31:11;15.07;;;9.90;;
82415;SDS011;72058;47.782;10.618;2023-12-07T06:33:37;13.40;;;10.95;;
82415;SDS011;72058;47.782;10.618;2023-12-07T06:36:02;13.47;;;11.93;;
82415;SDS011;72058;47.782;10.618;2023-12-07T06:38:28;15.18;;;12.82;;
82415;SDS011;72058;47.782;10.618;2023-12-07T06:40:53;15.10;;;10.73;;
82415;SDS011;72058;47.782;10.618;2023-12-07T06:43:19;13.30;;;10.68;;
82415;SDS011;72058;47.782;10.618;2023-12-07T06:45:44;14.70;;;10.77;;
82415;SDS011;72058;47.782;10.618;2023-12-07T06:48:09;12.83;;;10.83;;
82415;SDS011;72058;47.782;10.618;2023-12-07T06:50:36;13.23;;;10.50;;
82415;SDS011;72058;47.782;10.618;2023-12-07T06:53:02;15.77;;;10.75;;
82415;SDS011;72058;47.782;10.618;2023-12-07T06:55:27;14.23;;;11.93;;
82415;SDS011;72058;47.782;10.618;2023-12-07T06:57:53;15.30;;;11.73;;
82415;SDS011;72058;47.782;10.618;2023-12-07T07:00:18;14.47;;;12.70;;
82415;SDS011;72058;47.782;10.618;2023-12-07T07:02:45;14.18;;;11.75;;
82415;SDS011;72058;47.782;10.618;2023-12-07T07:05:10;15.30;;;12.55;;
82415;SDS011;72058;47.782;10.618;2023-12-07T07:07:36;14.85;;;13.25;;
82415;SDS011;72058;47.782;10.618;2023-12-07T07:10:02;25.35;;;19.23;;
82415;SDS011;72058;47.782;10.618;2023-12-07T07:12:27;23.02;;;17.50;;
82415;SDS011;72058;47.782;10.618;2023-12-07T07:14:54;23.60;;;18.40;;
82415;SDS011;72058;47.782;10.618;2023-12-07T07:17:20;26.17;;;18.25;;
82415;SDS011;72058;47.782;10.618;2023-12-07T07:19:45;22.00;;;16.73;;
82415;SDS011;72058;47.782;10.618;2023-12-07T07:22:10;20.07;;;13.93;;
82415;SDS011;72058;47.782;10.618;2023-12-07T07:24:36;18.75;;;15.18;;
82415;SDS011;72058;47.782;10.618;2023-12-07T07:27:01;23.63;;;15.33;;
82415;SDS011;72058;47.782;10.618;2023-12-07T07:29:27;30.83;;;22.55;;
82415;SDS011;72058;47.782;10.618;2023-12-07T07:31:53;34.22;;;23.17;;
82415;SDS011;72058;47.782;10.618;2023-12-07T07:34:18;21.23;;;16.60;;
82415;SDS011;72058;47.782;10.618;2023-12-07T07:36:44;21.67;;;17.27;;
82415;SDS011;72058;47.782;10.618;2023-12-07T07:39:09;24.53;;;18.23;;
82415;SDS011;72058;47.782;10.618;2023-12-07T07:41:35;25.05;;;16.27;;
82415;SDS011;72058;47.782;10.618;2023-12-07T07:44:01;17.42;;;14.35;;
82415;SDS011;72058;47.782;10.618;2023-12-07T07:46:27;16.83;;;12.75;;
82415;SDS011;72058;47.782;10.618;2023-12-07T07:48:52;16.03;;;13.17;;
82415;SDS011;72058;47.782;10.618;2023-12-07T07:51:17;22.27;;;15.68;;
82415;SDS011;72058;47.782;10.618;2023-12-07T07:53:43;22.10;;;18.00;;
82415;SDS011;72058;47.782;10.618;2023-12-07T07:56:08;19.40;;;17.10;;
82415;SDS011;72058;47.782;10.618;2023-12-07T07:58:34;23.20;;;16.00;;
82415;SDS011;72058;47.782;10.618;2023-12-07T08:01:00;19.92;;;15.65;;
82415;SDS011;72058;47.782;10.618;2023-12-07T08:03:25;24.40;;;15.52;;
82415;SDS011;72058;47.782;10.618;2023-12-07T08:05:50;19.63;;;14.70;;
82415;SDS011;72058;47.782;10.618;2023-12-07T08:08:16;18.65;;;13.90;;
82415;SDS011;72058;47.782;10.618;2023-12-07T08:10:41;18.58;;;14.10;;
82415;SDS011;72058;47.782;10.618;2023-12-07T08:13:06;19.83;;;14.90;;
82415;SDS011;72058;47.782;10.618;2023-12-07T08:15:33;24.58;;;16.52;;
82415;SDS011;72058;47.782;10.618;2023-12-07T08:17:58;21.80;;;16.17;;
82415;SDS011;72058;47.782;10.618;2023-12-07T08:20:24;22.77;;;16.95;;
82415;SDS011;72058;47.782;10.618;2023-12-07T08:22:49;20.48;;;16.02;;
82415;SDS011;72058;47.782;10.618;2023-12-07T08:25:15;25.02;;;14.80;;
82415;SDS011;72058;47.782;10.618;2023-12-07T08:27:42;21.73;;;15.95;;
82415;SDS011;72058;47.782;10.618;2023-12-07T08:30:09;17.65;;;15.82;;
82415;SDS011;72058;47.782;10.618;2023-12-07T08:32:35;22.42;;;15.55;;
82415;SDS011;72058;47.782;10.618;2023-12-07T08:35:02;19.23;;;16.95;;
82415;SDS011;72058;47.782;10.618;2023-12-07T08:37:27;21.55;;;15.48;;
82415;SDS011;72058;47.782;10.618;2023-12-07T08:39:53;18.38;;;14.82;;
82415;SDS011;72058;47.782;10.618;2023-12-07T08:42:19;18.55;;;15.38;;
82415;SDS011;72058;47.782;10.618;2023-12-07T08:44:44;21.27;;;15.40;;
82415;SDS011;72058;47.782;10.618;2023-12-07T08:47:09;22.80;;;16.93;;
82415;SDS011;72058;47.782;10.618;2023-12-07T08:49:35;22.17;;;16.60;;
82415;SDS011;72058;47.782;10.618;2023-12-07T08:52:01;20.42;;;15.65;;
82415;SDS011;72058;47.782;10.618;2023-12-07T08:54:27;19.88;;;16.50;;
82415;SDS011;72058;47.782;10.618;2023-12-07T08:56:55;21.25;;;15.70;;
82415;SDS011;72058;47.782;10.618;2023-12-07T08:59:21;19.00;;;16.55;;
82415;SDS011;72058;47.782;10.618;2023-12-07T09:01:46;21.60;;;16.53;;
82415;SDS011;72058;47.782;10.618;2023-12-07T09:04:11;21.60;;;16.23;;
82415;SDS011;72058;47.782;10.618;2023-12-07T09:06:37;24.35;;;16.60;;
82415;SDS011;72058;47.782;10.618;2023-12-07T09:09:03;20.20;;;17.02;;
82415;SDS011;72058;47.782;10.618;2023-12-07T09:11:31;20.23;;;15.30;;
82415;SDS011;72058;47.782;10.618;2023-12-07T09:13:57;20.60;;;16.63;;
82415;SDS011;72058;47.782;10.618;2023-12-07T09:16:23;23.48;;;17.38;;
82415;SDS011;72058;47.782;10.618;2023-12-07T09:18:49;21.63;;;17.20;;
82415;SDS011;72058;47.782;10.618;2023-12-07T09:21:15;20.08;;;15.07;;
82415;SDS011;72058;47.782;10.618;2023-12-07T09:23:40;21.90;;;15.17;;
82415;SDS011;72058;47.782;10.618;2023-12-07T09:26:06;21.40;;;13.40;;
82415;SDS011;72058;47.782;10.618;2023-12-07T09:28:32;26.42;;;16.42;;
82415;SDS011;72058;47.782;10.618;2023-12-07T09:30:58;21.65;;;15.90;;
82415;SDS011;72058;47.782;10.618;2023-12-07T09:33:24;20.52;;;17.45;;
82415;SDS011;72058;47.782;10.618;2023-12-07T09:35:49;23.03;;;16.80;;
82415;SDS011;72058;47.782;10.618;2023-12-07T09:38:14;21.00;;;14.98;;
82415;SDS011;72058;47.782;10.618;2023-12-07T09:40:40;21.08;;;16.55;;
82415;SDS011;72058;47.782;10.618;2023-12-07T09:43:06;22.50;;;15.05;;
82415;SDS011;72058;47.782;10.618;2023-12-07T09:45:31;11.88;;;10.63;;
82415;SDS011;72058;47.782;10.618;2023-12-07T09:47:57;20.85;;;14.32;;
82415;SDS011;72058;47.782;10.618;2023-12-07T09:50:24;18.45;;;15.63;;
82415;SDS011;72058;47.782;10.618;2023-12-07T09:52:51;23.17;;;18.05;;
82415;SDS011;72058;47.782;10.618;2023-12-07T09:55:19;20.35;;;16.77;;
82415;SDS011;72058;47.782;10.618;2023-12-07T09:57:48;16.58;;;14.82;;
82415;SDS011;72058;47.782;10.618;2023-12-07T10:00:14;19.83;;;15.18;;
82415;SDS011;72058;47.782;10.618;2023-12-07T10:02:41;19.25;;;15.90;;
82415;SDS011;72058;47.782;10.618;2023-12-07T10:05:16;16.42;;;12.43;;
82415;SDS011;72058;47.782;10.618;2023-12-07T10:07:48;19.42;;;14.07;;
82415;SDS011;72058;47.782;10.618;2023-12-07T10:10:15;16.85;;;12.38;;
82415;SDS011;72058;47.782;10.618;2023-12-07T10:15:18;18.23;;;14.82;;
82415;SDS011;72058;47.782;10.618;2023-12-07T10:20:20;19.55;;;15.13;;
82415;SDS011;72058;47.782;10.618;2023-12-07T10:22:48;18.92;;;14.95;;
82415;SDS011;72058;47.782;10.618;2023-12-07T10:25:14;20.60;;;15.45;;
82415;SDS011;72058;47.782;10.618;2023-12-07T10:27:40;17.33;;;14.65;;
82415;SDS011;72058;47.782;10.618;2023-12-07T10:30:09;18.58;;;14.70;;
82415;SDS011;72058;47.782;10.618;2023-12-07T10:32:36;19.13;;;14.50;;
82415;SDS011;72058;47.782;10.618;2023-12-07T10:35:03;15.55;;;12.32;;
82415;SDS011;72058;47.782;10.618;2023-12-07T10:37:31;15.95;;;13.70;;
82415;SDS011;72058;47.782;10.618;2023-12-07T10:39:57;16.05;;;13.55;;
82415;SDS011;72058;47.782;10.618;2023-12-07T10:42:23;16.08;;;13.75;;
82415;SDS011;72058;47.782;10.618;2023-12-07T10:44:49;21.67;;;15.05;;
82415;SDS011;72058;47.782;10.618;2023-12-07T10:47:18;16.27;;;13.57;;
82415;SDS011;72058;47.782;10.618;2023-12-07T10:49:47;18.05;;;13.68;;
82415;SDS011;72058;47.782;10.618;2023-12-07T10:52:17;16.02;;;13.45;;
82415;SDS011;72058;47.782;10.618;2023-12-07T10:54:50;18.20;;;15.93;;
82415;SDS011;72058;47.782;10.618;2023-12-07T10:57:24;14.82;;;11.68;;
82415;SDS011;72058;47.782;10.618;2023-12-07T11:02:17;7.90;;;7.03;;
82415;SDS011;72058;47.782;10.618;2023-12-07T11:04:44;10.48;;;8.07;;
82415;SDS011;72058;47.782;10.618;2023-12-07T11:07:12;8.18;;;7.07;;
82415;SDS011;72058;47.782;10.618;2023-12-07T11:09:45;8.93;;;8.02;;
82415;SDS011;72058;47.782;10.618;2023-12-07T11:15:06;8.52;;;6.57;;
82415;SDS011;72058;47.782;10.618;2023-12-07T11:17:55;8.00;;;7.28;;
82415;SDS011;72058;47.782;10.618;2023-12-07T11:20:20;9.38;;;7.53;;
82415;SDS011;72058;47.782;10.618;2023-12-07T11:22:46;7.68;;;6.93;;
82415;SDS011;72058;47.782;10.618;2023-12-07T11:27:39;8.43;;;7.78;;
82415;SDS011;72058;47.782;10.618;2023-12-07T11:30:06;8.02;;;6.97;;
82415;SDS011;72058;47.782;10.618;2023-12-07T11:32:32;7.60;;;6.90;;
82415;SDS011;72058;47.782;10.618;2023-12-07T11:35:04;7.93;;;6.97;;
82415;SDS011;72058;47.782;10.618;2023-12-07T11:38:00;8.60;;;6.57;;
82415;SDS011;72058;47.782;10.618;2023-12-07T11:40:42;7.80;;;6.95;;
82415;SDS011;72058;47.782;10.618;2023-12-07T11:43:08;9.15;;;8.30;;
82415;SDS011;72058;47.782;10.618;2023-12-07T11:45:46;7.75;;;7.00;;
82415;SDS011;72058;47.782;10.618;2023-12-07T11:48:16;7.40;;;6.15;;
82415;SDS011;72058;47.782;10.618;2023-12-07T11:50:59;7.30;;;6.53;;
82415;SDS011;72058;47.782;10.618;2023-12-07T11:53:29;8.32;;;7.53;;
82415;SDS011;72058;47.782;10.618;2023-12-07T11:55:56;9.32;;;8.27;;
82415;SDS011;72058;47.782;10.618;2023-12-07T11:58:26;7.35;;;6.22;;
82415;SDS011;72058;47.782;10.618;2023-12-07T12:00:52;7.97;;;7.03;;
82415;SDS011;72058;47.782;10.618;2023-12-07T12:03:19;8.25;;;7.45;;
82415;SDS011;72058;47.782;10.618;2023-12-07T12:05:45;6.68;;;6.05;;
82415;SDS011;72058;47.782;10.618;2023-12-07T12:08:10;7.45;;;6.85;;
82415;SDS011;72058;47.782;10.618;2023-12-07T12:10:37;7.43;;;5.78;;
82415;SDS011;72058;47.782;10.618;2023-12-07T12:13:03;7.70;;;5.13;;
82415;SDS011;72058;47.782;10.618;2023-12-07T12:15:29;6.72;;;6.13;;
82415;SDS011;72058;47.782;10.618;2023-12-07T12:17:55;7.05;;;6.40;;
82415;SDS011;72058;47.782;10.618;2023-12-07T12:20:21;7.80;;;7.10;;
82415;SDS011;72058;47.782;10.618;2023-12-07T12:22:47;5.95;;;5.15;;
82415;SDS011;72058;47.782;10.618;2023-12-07T12:25:12;6.60;;;5.97;;
82415;SDS011;72058;47.782;10.618;2023-12-07T12:27:38;6.13;;;5.53;;
82415;SDS011;72058;47.782;10.618;2023-12-07T12:30:05;6.55;;;6.00;;
82415;SDS011;72058;47.782;10.618;2023-12-07T12:32:44;6.18;;;5.53;;
82415;SDS011;72058;47.782;10.618;2023-12-07T12:35:10;6.63;;;5.85;;
82415;SDS011;72058;47.782;10.618;2023-12-07T12:37:37;7.45;;;5.50;;
82415;SDS011;72058;47.782;10.618;2023-12-07T12:42:32;6.28;;;5.40;;
82415;SDS011;72058;47.782;10.618;2023-12-07T12:44:58;6.50;;;5.90;;
82415;SDS011;72058;47.782;10.618;2023-12-07T12:47:24;6.25;;;5.68;;
82415;SDS011;72058;47.782;10.618;2023-12-07T12:49:50;7.28;;;6.57;;
82415;SDS011;72058;47.782;10.618;2023-12-07T12:52:15;5.47;;;4.97;;
82415;SDS011;72058;47.782;10.618;2023-12-07T12:54:45;5.80;;;5.30;;
82415;SDS011;72058;47.782;10.618;2023-12-07T12:57:11;7.15;;;6.30;;
82415;SDS011;72058;47.782;10.618;2023-12-07T12:59:37;6.28;;;5.57;;
82415;SDS011;72058;47.782;10.618;2023-12-07T13:02:03;7.25;;;6.65;;
82415;SDS011;72058;47.782;10.618;2023-12-07T13:04:31;6.32;;;5.75;;
82415;SDS011;72058;47.782;10.618;2023-12-07T13:06:56;6.50;;;5.90;;
82415;SDS011;72058;47.782;10.618;2023-12-07T13:09:22;6.43;;;5.82;;
82415;SDS011;72058;47.782;10.618;2023-12-07T13:11:48;7.20;;;6.43;;
82415;SDS011;72058;47.782;10.618;2023-12-07T13:14:14;7.80;;;7.07;;
82415;SDS011;72058;47.782;10.618;2023-12-07T13:16:39;8.68;;;6.05;;
82415;SDS011;72058;47.782;10.618;2023-12-07T13:19:05;7.07;;;5.78;;
82415;SDS011;72058;47.782;10.618;2023-12-07T13:21:32;7.35;;;6.65;;
82415;SDS011;72058;47.782;10.618;2023-12-07T13:23:57;7.13;;;6.45;;
82415;SDS011;72058;47.782;10.618;2023-12-07T13:26:23;6.85;;;6.25;;
82415;SDS011;72058;47.782;10.618;2023-12-07T13:28:49;8.63;;;6.53;;
82415;SDS011;72058;47.782;10.618;2023-12-07T13:31:14;9.63;;;6.73;;
82415;SDS011;72058;47.782;10.618;2023-12-07T13:33:39;7.50;;;6.80;;
82415;SDS011;72058;47.782;10.618;2023-12-07T13:36:05;6.85;;;6.18;;
82415;SDS011;72058;47.782;10.618;2023-12-07T13:38:31;8.57;;;7.88;;
82415;SDS011;72058;47.782;10.618;2023-12-07T13:40:58;8.13;;;7.40;;
82415;SDS011;72058;47.782;10.618;2023-12-07T13:43:24;7.13;;;6.47;;
82415;SDS011;72058;47.782;10.618;2023-12-07T13:45:50;9.70;;;7.93;;
82415;SDS011;72058;47.782;10.618;2023-12-07T13:48:15;7.97;;;5.80;;
82415;SDS011;72058;47.782;10.618;2023-12-07T13:50:42;7.93;;;7.32;;
82415;SDS011;72058;47.782;10.618;2023-12-07T13:53:08;8.15;;;7.38;;
82415;SDS011;72058;47.782;10.618;2023-12-07T13:55:37;7.82;;;7.13;;
82415;SDS011;72058;47.782;10.618;2023-12-07T13:58:06;8.63;;;7.82;;
82415;SDS011;72058;47.782;10.618;2023-12-07T14:00:32;7.85;;;6.38;;
82415;SDS011;72058;47.782;10.618;2023-12-07T14:02:59;6.68;;;5.82;;
82415;SDS011;72058;47.782;10.618;2023-12-07T14:05:24;7.53;;;6.00;;
82415;SDS011;72058;47.782;10.618;2023-12-07T14:07:50;9.15;;;6.82;;
82415;SDS011;72058;47.782;10.618;2023-12-07T14:10:15;8.48;;;7.78;;
82415;SDS011;72058;47.782;10.618;2023-12-07T14:12:41;7.38;;;6.68;;
82415;SDS011;72058;47.782;10.618;2023-12-07T14:15:06;7.28;;;6.57;;
82415;SDS011;72058;47.782;10.618;2023-12-07T14:17:33;7.05;;;6.43;;
82415;SDS011;72058;47.782;10.618;2023-12-07T14:20:03;7.78;;;6.70;;
82415;SDS011;72058;47.782;10.618;2023-12-07T14:22:29;7.70;;;6.57;;
82415;SDS011;72058;47.782;10.618;2023-12-07T14:24:54;8.88;;;8.07;;
82415;SDS011;72058;47.782;10.618;2023-12-07T14:27:20;8.00;;;7.13;;
82415;SDS011;72058;47.782;10.618;2023-12-07T14:29:46;8.32;;;7.32;;
82415;SDS011;72058;47.782;10.618;2023-12-07T14:32:11;8.80;;;7.93;;